sensor_id;sensor_type;location;lat;lon;timestamp;pressure;altitude;pressure_sealevel;temperature;humidity
77041;BME280;65974;42.664;23.264;2023-03-26T00:01:52;93943.22;;;9.30;66.62
77041;BME280;65974;42.664;23.264;2023-03-26T00:04:18;93944.75;;;9.24;66.72
77041;BME280;65974;42.664;23.264;2023-03-26T00:06:46;93936.38;;;9.29;67.12
77041;BME280;65974;42.664;23.264;2023-03-26T00:09:14;93943.19;;;9.26;67.12
77041;BME280;65974;42.664;23.264;2023-03-26T00:11:41;93940.19;;;9.21;66.79
77041;BME280;65974;42.664;23.264;2023-03-26T00:14:07;93934.09;;;9.20;66.98
77041;BME280;65974;42.664;23.264;2023-03-26T00:16:34;93937.13;;;9.22;66.97
77041;BME280;65974;42.664;23.264;2023-03-26T00:19:00;93925.00;;;9.25;66.71
77041;BME280;65974;42.664;23.264;2023-03-26T00:21:27;93921.22;;;9.26;66.96
77041;BME280;65974;42.664;23.264;2023-03-26T00:24:01;93915.91;;;9.26;67.17
77041;BME280;65974;42.664;23.264;2023-03-26T00:26:30;93912.84;;;9.27;66.59
77041;BME280;65974;42.664;23.264;2023-03-26T00:28:57;93907.53;;;9.31;66.98
77041;BME280;65974;42.664;23.264;2023-03-26T00:31:23;93894.22;;;9.31;66.20
77041;BME280;65974;42.664;23.264;2023-03-26T00:33:50;93897.28;;;9.36;65.87
77041;BME280;65974;42.664;23.264;2023-03-26T00:36:19;93896.88;;;9.42;65.76
77041;BME280;65974;42.664;23.264;2023-03-26T00:38:45;93887.38;;;9.48;65.66
77041;BME280;65974;42.664;23.264;2023-03-26T00:41:15;93890.03;;;9.44;65.75
77041;BME280;65974;42.664;23.264;2023-03-26T00:43:51;93897.63;;;9.49;64.59
77041;BME280;65974;42.664;23.264;2023-03-26T00:46:17;93902.91;;;9.56;64.65
77041;BME280;65974;42.664;23.264;2023-03-26T00:48:44;93896.84;;;9.52;65.91
77041;BME280;65974;42.664;23.264;2023-03-26T00:51:11;93903.69;;;9.46;65.80
77041;BME280;65974;42.664;23.264;2023-03-26T00:53:39;93902.19;;;9.42;66.08
77041;BME280;65974;42.664;23.264;2023-03-26T00:56:07;93904.84;;;9.45;65.07
77041;BME280;65974;42.664;23.264;2023-03-26T00:58:33;93907.13;;;9.50;64.43
77041;BME280;65974;42.664;23.264;2023-03-26T01:01:01;93912.44;;;9.50;64.22
77041;BME280;65974;42.664;23.264;2023-03-26T01:03:31;93909.03;;;9.46;64.00
77041;BME280;65974;42.664;23.264;2023-03-26T01:06:02;93912.44;;;9.47;64.08
77041;BME280;65974;42.664;23.264;2023-03-26T01:11:12;93912.84;;;9.34;64.88
77041;BME280;65974;42.664;23.264;2023-03-26T01:13:46;93907.53;;;9.31;65.18
77041;BME280;65974;42.664;23.264;2023-03-26T01:16:43;93902.59;;;9.26;65.85
77041;BME280;65974;42.664;23.264;2023-03-26T01:21:54;93909.44;;;9.13;66.45
77041;BME280;65974;42.664;23.264;2023-03-26T01:24:19;93909.81;;;9.15;66.40
77041;BME280;65974;42.664;23.264;2023-03-26T01:27:07;93915.13;;;9.15;66.50
77041;BME280;65974;42.664;23.264;2023-03-26T01:35:35;93918.53;;;9.12;67.88
77041;BME280;65974;42.664;23.264;2023-03-26T01:46:31;93921.22;;;9.05;67.81
77041;BME280;65974;42.664;23.264;2023-03-26T01:49:03;93931.06;;;9.04;68.70
77041;BME280;65974;42.664;23.264;2023-03-26T01:51:30;93931.44;;;9.06;67.96
77041;BME280;65974;42.664;23.264;2023-03-26T01:53:55;93928.81;;;9.03;68.71
77041;BME280;65974;42.664;23.264;2023-03-26T02:01:57;93929.16;;;9.12;67.30
77041;BME280;65974;42.664;23.264;2023-03-26T02:09:51;93935.63;;;9.14;66.49
77041;BME280;65974;42.664;23.264;2023-03-26T02:12:21;93940.94;;;9.14;66.95
77041;BME280;65974;42.664;23.264;2023-03-26T02:14:47;93930.31;;;9.11;66.80
77041;BME280;65974;42.664;23.264;2023-03-26T02:17:12;93933.34;;;9.06;67.05
77041;BME280;65974;42.664;23.264;2023-03-26T02:19:38;93931.44;;;9.06;66.72
77041;BME280;65974;42.664;23.264;2023-03-26T02:22:07;93931.06;;;9.08;66.78
77041;BME280;65974;42.664;23.264;2023-03-26T02:24:36;93925.75;;;9.08;66.87
77041;BME280;65974;42.664;23.264;2023-03-26T02:27:02;93928.78;;;9.17;65.95
77041;BME280;65974;42.664;23.264;2023-03-26T02:29:28;93924.59;;;9.16;66.32
77041;BME280;65974;42.664;23.264;2023-03-26T02:31:53;93929.16;;;9.12;66.81
77041;BME280;65974;42.664;23.264;2023-03-26T02:34:19;93933.34;;;9.13;66.46
77041;BME280;65974;42.664;23.264;2023-03-26T02:36:45;93944.34;;;9.18;65.99
77041;BME280;65974;42.664;23.264;2023-03-26T02:39:11;93947.03;;;9.22;65.38
77041;BME280;65974;42.664;23.264;2023-03-26T02:41:38;93940.94;;;9.25;65.26
77041;BME280;65974;42.664;23.264;2023-03-26T02:44:04;93945.50;;;9.21;65.68
77041;BME280;65974;42.664;23.264;2023-03-26T02:46:31;93951.94;;;9.16;66.19
77041;BME280;65974;42.664;23.264;2023-03-26T02:48:57;93961.03;;;9.08;66.47
77041;BME280;65974;42.664;23.264;2023-03-26T02:51:23;93961.78;;;9.05;66.61
77041;BME280;65974;42.664;23.264;2023-03-26T02:53:49;93962.53;;;8.99;66.68
77041;BME280;65974;42.664;23.264;2023-03-26T02:56:15;93975.81;;;8.99;66.36
77041;BME280;65974;42.664;23.264;2023-03-26T02:58:40;93978.13;;;9.00;66.69
77041;BME280;65974;42.664;23.264;2023-03-26T03:01:06;93979.63;;;9.01;66.73
77041;BME280;65974;42.664;23.264;2023-03-26T03:03:32;93976.59;;;8.96;66.90
77041;BME280;65974;42.664;23.264;2023-03-26T03:05:58;93981.13;;;8.95;66.58
77041;BME280;65974;42.664;23.264;2023-03-26T03:08:26;93983.41;;;8.93;67.10
77041;BME280;65974;42.664;23.264;2023-03-26T03:11:16;93975.81;;;8.85;67.54
77041;BME280;65974;42.664;23.264;2023-03-26T03:13:43;93978.47;;;8.81;67.54
77041;BME280;65974;42.664;23.264;2023-03-26T03:16:09;93979.19;;;8.71;67.61
77041;BME280;65974;42.664;23.264;2023-03-26T03:18:34;93987.53;;;8.66;67.54
77041;BME280;65974;42.664;23.264;2023-03-26T03:21:01;93987.13;;;8.57;68.09
77041;BME280;65974;42.664;23.264;2023-03-26T03:23:27;93997.31;;;8.48;68.87
77041;BME280;65974;42.664;23.264;2023-03-26T03:25:53;94004.56;;;8.51;68.50
77041;BME280;65974;42.664;23.264;2023-03-26T03:28:21;93999.22;;;8.44;69.00
77041;BME280;65974;42.664;23.264;2023-03-26T03:30:48;94001.88;;;8.44;68.70
77041;BME280;65974;42.664;23.264;2023-03-26T03:33:17;93992.38;;;8.36;69.24
77041;BME280;65974;42.664;23.264;2023-03-26T03:35:45;93993.84;;;8.30;69.30
77041;BME280;65974;42.664;23.264;2023-03-26T03:38:12;93993.09;;;8.26;69.56
77041;BME280;65974;42.664;23.264;2023-03-26T03:40:37;93987.78;;;8.26;69.50
77041;BME280;65974;42.664;23.264;2023-03-26T03:43:03;93977.09;;;8.22;70.05
77041;BME280;65974;42.664;23.264;2023-03-26T03:45:28;93983.19;;;8.23;69.85
77041;BME280;65974;42.664;23.264;2023-03-26T03:47:53;93974.84;;;8.21;69.91
77041;BME280;65974;42.664;23.264;2023-03-26T03:50:19;93971.78;;;8.15;69.59
77041;BME280;65974;42.664;23.264;2023-03-26T03:52:45;93974.06;;;8.13;70.10
77041;BME280;65974;42.664;23.264;2023-03-26T03:55:10;93981.25;;;8.13;69.78
77041;BME280;65974;42.664;23.264;2023-03-26T03:57:38;93973.69;;;8.15;70.05
77041;BME280;65974;42.664;23.264;2023-03-26T04:00:05;93973.63;;;8.08;70.46
77041;BME280;65974;42.664;23.264;2023-03-26T04:02:33;93969.88;;;8.09;69.82
77041;BME280;65974;42.664;23.264;2023-03-26T04:05:00;93967.94;;;8.09;69.87
77041;BME280;65974;42.664;23.264;2023-03-26T04:07:27;93966.06;;;8.10;69.58
77041;BME280;65974;42.664;23.264;2023-03-26T04:09:55;93980.09;;;8.07;70.15
77041;BME280;65974;42.664;23.264;2023-03-26T04:12:21;93989.16;;;8.06;70.17
77041;BME280;65974;42.664;23.264;2023-03-26T04:14:47;94006.56;;;8.03;70.24
77041;BME280;65974;42.664;23.264;2023-03-26T04:17:12;94005.78;;;7.99;70.37
77041;BME280;65974;42.664;23.264;2023-03-26T04:19:40;94021.34;;;8.01;70.13
77041;BME280;65974;42.664;23.264;2023-03-26T04:22:08;94019.81;;;8.00;70.52
77041;BME280;65974;42.664;23.264;2023-03-26T04:24:36;94035.34;;;8.01;70.48
77041;BME280;65974;42.664;23.264;2023-03-26T04:27:21;94030.44;;;8.03;70.40
77041;BME280;65974;42.664;23.264;2023-03-26T04:29:49;94042.97;;;8.06;70.13
77041;BME280;65974;42.664;23.264;2023-03-26T04:32:24;94045.63;;;8.06;70.62
77041;BME280;65974;42.664;23.264;2023-03-26T04:34:55;94041.09;;;8.07;70.15
77041;BME280;65974;42.664;23.264;2023-03-26T04:40:06;94056.63;;;8.08;70.01
77041;BME280;65974;42.664;23.264;2023-03-26T04:42:33;94059.66;;;8.10;70.11
77041;BME280;65974;42.664;23.264;2023-03-26T04:44:59;94068.00;;;8.12;70.40
77041;BME280;65974;42.664;23.264;2023-03-26T04:47:27;94074.84;;;8.13;70.04
77041;BME280;65974;42.664;23.264;2023-03-26T04:49:53;94071.81;;;8.15;69.42
77041;BME280;65974;42.664;23.264;2023-03-26T04:52:19;94074.13;;;8.20;69.58
77041;BME280;65974;42.664;23.264;2023-03-26T04:54:44;94079.00;;;8.18;68.63
77041;BME280;65974;42.664;23.264;2023-03-26T04:57:24;94076.75;;;8.16;67.85
77041;BME280;65974;42.664;23.264;2023-03-26T04:59:52;94080.16;;;8.17;67.67
77041;BME280;65974;42.664;23.264;2023-03-26T05:02:17;94070.34;;;8.24;67.18
77041;BME280;65974;42.664;23.264;2023-03-26T05:04:43;94082.53;;;8.29;66.97
77041;BME280;65974;42.664;23.264;2023-03-26T05:07:18;94087.94;;;8.43;66.53
77041;BME280;65974;42.664;23.264;2023-03-26T05:09:44;94082.63;;;8.43;65.66
77041;BME280;65974;42.664;23.264;2023-03-26T05:12:09;94091.78;;;8.56;65.24
77041;BME280;65974;42.664;23.264;2023-03-26T05:14:34;94087.25;;;8.64;64.85
77041;BME280;65974;42.664;23.264;2023-03-26T05:17:01;94093.34;;;8.71;64.54
77041;BME280;65974;42.664;23.264;2023-03-26T05:19:30;94090.72;;;8.75;64.42
77041;BME280;65974;42.664;23.264;2023-03-26T05:21:56;94094.88;;;8.76;64.09
77041;BME280;65974;42.664;23.264;2023-03-26T05:24:21;94096.38;;;8.73;64.16
77041;BME280;65974;42.664;23.264;2023-03-26T05:26:49;94098.31;;;8.73;64.29
77041;BME280;65974;42.664;23.264;2023-03-26T05:29:15;94098.31;;;8.73;64.03
77041;BME280;65974;42.664;23.264;2023-03-26T05:31:41;94095.25;;;8.74;64.16
77041;BME280;65974;42.664;23.264;2023-03-26T05:34:07;94094.09;;;8.68;64.40
77041;BME280;65974;42.664;23.264;2023-03-26T05:36:32;94102.84;;;8.69;64.57
77041;BME280;65974;42.664;23.264;2023-03-26T05:38:58;94094.88;;;8.72;64.32
77041;BME280;65974;42.664;23.264;2023-03-26T05:41:23;94101.00;;;8.83;64.24
77041;BME280;65974;42.664;23.264;2023-03-26T05:43:48;94109.34;;;8.92;64.00
77041;BME280;65974;42.664;23.264;2023-03-26T05:46:15;94114.31;;;8.97;64.71
77041;BME280;65974;42.664;23.264;2023-03-26T05:48:41;94110.16;;;8.96;64.68
77041;BME280;65974;42.664;23.264;2023-03-26T05:51:06;94113.19;;;9.02;64.63
77041;BME280;65974;42.664;23.264;2023-03-26T05:53:32;94108.25;;;9.07;64.05
77041;BME280;65974;42.664;23.264;2023-03-26T05:55:58;94113.22;;;9.09;63.58
77041;BME280;65974;42.664;23.264;2023-03-26T05:58:28;94115.50;;;9.10;63.83
77041;BME280;65974;42.664;23.264;2023-03-26T06:01:02;94109.41;;;9.03;63.55
77041;BME280;65974;42.664;23.264;2023-03-26T06:03:36;94113.19;;;9.02;63.57
77041;BME280;65974;42.664;23.264;2023-03-26T06:06:05;94108.66;;;9.09;63.12
77041;BME280;65974;42.664;23.264;2023-03-26T06:08:30;94110.94;;;9.07;62.28
77041;BME280;65974;42.664;23.264;2023-03-26T06:11:04;94113.97;;;9.06;63.22
77041;BME280;65974;42.664;23.264;2023-03-26T06:13:31;94104.84;;;9.03;62.88
77041;BME280;65974;42.664;23.264;2023-03-26T06:15:56;94100.31;;;9.11;62.47
77041;BME280;65974;42.664;23.264;2023-03-26T06:18:23;94102.59;;;9.09;62.24
77041;BME280;65974;42.664;23.264;2023-03-26T06:20:49;94096.53;;;9.12;61.56
77041;BME280;65974;42.664;23.264;2023-03-26T06:23:15;94096.56;;;9.26;62.00
77041;BME280;65974;42.664;23.264;2023-03-26T06:25:41;94104.91;;;9.17;61.25
77041;BME280;65974;42.664;23.264;2023-03-26T06:28:09;94103.00;;;9.21;61.61
77041;BME280;65974;42.664;23.264;2023-03-26T06:30:35;94102.63;;;9.23;60.54
77041;BME280;65974;42.664;23.264;2023-03-26T06:33:00;94097.31;;;9.19;61.05
77041;BME280;65974;42.664;23.264;2023-03-26T06:35:26;94087.44;;;9.20;60.83
77041;BME280;65974;42.664;23.264;2023-03-26T06:37:53;94093.13;;;9.15;60.77
77041;BME280;65974;42.664;23.264;2023-03-26T06:40:18;94088.19;;;9.17;61.32
77041;BME280;65974;42.664;23.264;2023-03-26T06:42:44;94087.44;;;9.27;60.50
77041;BME280;65974;42.664;23.264;2023-03-26T06:45:10;94092.03;;;9.30;60.40
77041;BME280;65974;42.664;23.264;2023-03-26T06:47:35;94087.84;;;9.39;60.23
77041;BME280;65974;42.664;23.264;2023-03-26T06:50:00;94088.25;;;9.52;58.80
77041;BME280;65974;42.664;23.264;2023-03-26T06:52:26;94098.13;;;9.48;58.49
77041;BME280;65974;42.664;23.264;2023-03-26T06:54:52;94100.41;;;9.57;59.33
77041;BME280;65974;42.664;23.264;2023-03-26T06:57:18;94101.94;;;9.58;59.18
77041;BME280;65974;42.664;23.264;2023-03-26T06:59:43;94114.47;;;9.64;59.26
77041;BME280;65974;42.664;23.264;2023-03-26T07:02:10;94116.38;;;9.64;58.91
77041;BME280;65974;42.664;23.264;2023-03-26T07:04:36;94116.38;;;9.60;57.72
77041;BME280;65974;42.664;23.264;2023-03-26T07:07:01;94114.84;;;9.56;57.79
77041;BME280;65974;42.664;23.264;2023-03-26T07:09:27;94114.84;;;9.63;57.32
77041;BME280;65974;42.664;23.264;2023-03-26T07:11:55;94111.03;;;9.53;57.06
77041;BME280;65974;42.664;23.264;2023-03-26T07:14:22;94113.31;;;9.51;57.68
77041;BME280;65974;42.664;23.264;2023-03-26T07:16:49;94113.31;;;9.55;57.98
77041;BME280;65974;42.664;23.264;2023-03-26T07:19:14;94111.81;;;9.57;57.69
77041;BME280;65974;42.664;23.264;2023-03-26T07:21:40;94110.28;;;9.63;58.27
77041;BME280;65974;42.664;23.264;2023-03-26T07:24:09;94111.44;;;9.76;56.78
77041;BME280;65974;42.664;23.264;2023-03-26T07:26:58;94102.31;;;9.81;57.19
77041;BME280;65974;42.664;23.264;2023-03-26T07:32:22;94097.75;;;10.02;56.49
77041;BME280;65974;42.664;23.264;2023-03-26T07:35:03;94090.53;;;9.89;56.48
77041;BME280;65974;42.664;23.264;2023-03-26T07:45:39;94085.25;;;10.13;53.64
77041;BME280;65974;42.664;23.264;2023-03-26T07:48:24;94090.13;;;10.36;53.02
77041;BME280;65974;42.664;23.264;2023-03-26T07:50:52;94087.44;;;10.54;50.41
77041;BME280;65974;42.664;23.264;2023-03-26T07:53:17;94079.81;;;10.59;50.48
77041;BME280;65974;42.664;23.264;2023-03-26T07:55:53;94076.72;;;10.68;52.29
77041;BME280;65974;42.664;23.264;2023-03-26T08:01:45;94078.25;;;10.69;48.77
77041;BME280;65974;42.664;23.264;2023-03-26T08:04:38;94085.44;;;10.79;50.19
77041;BME280;65974;42.664;23.264;2023-03-26T08:07:13;94076.63;;;10.96;48.53
77041;BME280;65974;42.664;23.264;2023-03-26T08:09:46;94071.28;;;11.00;47.22
77041;BME280;65974;42.664;23.264;2023-03-26T08:12:45;94061.34;;;11.04;48.60
77041;BME280;65974;42.664;23.264;2023-03-26T08:15:30;94076.19;;;11.01;47.48
77041;BME280;65974;42.664;23.264;2023-03-26T08:18:37;94078.16;;;10.93;48.66
77041;BME280;65974;42.664;23.264;2023-03-26T08:21:17;94066.72;;;10.97;49.12
77041;BME280;65974;42.664;23.264;2023-03-26T08:24:15;94072.41;;;11.02;48.11
77041;BME280;65974;42.664;23.264;2023-03-26T08:31:57;94077.97;;;11.29;46.08
77041;BME280;65974;42.664;23.264;2023-03-26T08:34:23;94082.25;;;11.12;45.68
77041;BME280;65974;42.664;23.264;2023-03-26T08:36:48;94084.53;;;11.14;47.62
77041;BME280;65974;42.664;23.264;2023-03-26T08:39:14;94089.78;;;11.28;46.78
77041;BME280;65974;42.664;23.264;2023-03-26T08:58:28;94078.09;;;11.73;47.13
77041;BME280;65974;42.664;23.264;2023-03-26T09:35:53;94063.66;;;12.48;42.70
77041;BME280;65974;42.664;23.264;2023-03-26T09:49:01;94057.13;;;12.53;40.54
77041;BME280;65974;42.664;23.264;2023-03-26T09:57:13;94051.28;;;12.99;40.73
77041;BME280;65974;42.664;23.264;2023-03-26T10:10:14;94022.78;;;13.69;37.39
77041;BME280;65974;42.664;23.264;2023-03-26T10:12:45;94030.84;;;13.88;37.40
77041;BME280;65974;42.664;23.264;2023-03-26T10:23:22;93999.50;;;13.89;35.56
77041;BME280;65974;42.664;23.264;2023-03-26T10:28:40;93996.03;;;13.69;35.46
77041;BME280;65974;42.664;23.264;2023-03-26T10:31:47;93988.41;;;13.90;35.26
77041;BME280;65974;42.664;23.264;2023-03-26T10:40:13;93988.69;;;13.96;32.86
77041;BME280;65974;42.664;23.264;2023-03-26T10:48:24;93978.88;;;14.32;31.10
77041;BME280;65974;42.664;23.264;2023-03-26T10:50:53;93972.19;;;14.40;31.67
77041;BME280;65974;42.664;23.264;2023-03-26T10:53:48;93969.81;;;14.23;31.61
77041;BME280;65974;42.664;23.264;2023-03-26T10:56:49;93962.84;;;14.68;30.93
77041;BME280;65974;42.664;23.264;2023-03-26T10:59:16;93965.19;;;15.02;30.00
77041;BME280;65974;42.664;23.264;2023-03-26T11:04:42;93962.84;;;15.04;29.86
77041;BME280;65974;42.664;23.264;2023-03-26T11:07:27;93967.69;;;14.93;29.47
77041;BME280;65974;42.664;23.264;2023-03-26T11:10:11;93959.94;;;14.78;28.80
77041;BME280;65974;42.664;23.264;2023-03-26T11:15:29;93953.53;;;14.92;29.85
77041;BME280;65974;42.664;23.264;2023-03-26T11:18:23;93946.53;;;14.78;29.55
77041;BME280;65974;42.664;23.264;2023-03-26T11:20:56;93942.19;;;14.85;30.38
77041;BME280;65974;42.664;23.264;2023-03-26T11:23:36;93944.88;;;14.85;26.09
77041;BME280;65974;42.664;23.264;2023-03-26T11:26:17;93935.66;;;14.86;28.20
77041;BME280;65974;42.664;23.264;2023-03-26T11:31:34;93924.84;;;14.89;30.11
77041;BME280;65974;42.664;23.264;2023-03-26T11:34:10;93922.22;;;15.05;30.37
77041;BME280;65974;42.664;23.264;2023-03-26T11:36:41;93915.16;;;15.11;29.97
77041;BME280;65974;42.664;23.264;2023-03-26T11:39:17;93917.19;;;15.23;29.90
77041;BME280;65974;42.664;23.264;2023-03-26T11:41:44;93914.84;;;15.41;30.18
77041;BME280;65974;42.664;23.264;2023-03-26T11:44:21;93905.13;;;15.47;30.03
77041;BME280;65974;42.664;23.264;2023-03-26T11:46:51;93894.41;;;15.47;28.83
77041;BME280;65974;42.664;23.264;2023-03-26T11:49:23;93879.84;;;15.61;29.53
77041;BME280;65974;42.664;23.264;2023-03-26T11:51:50;93880.91;;;16.08;29.61
77041;BME280;65974;42.664;23.264;2023-03-26T11:54:16;93872.25;;;16.17;30.14
77041;BME280;65974;42.664;23.264;2023-03-26T11:57:05;93869.47;;;15.92;30.16
77041;BME280;65974;42.664;23.264;2023-03-26T11:59:42;93865.03;;;16.14;30.11
77041;BME280;65974;42.664;23.264;2023-03-26T12:04:42;93852.22;;;16.05;29.18
77041;BME280;65974;42.664;23.264;2023-03-26T12:07:22;93850.31;;;16.18;28.34
77041;BME280;65974;42.664;23.264;2023-03-26T12:09:56;93853.53;;;16.13;28.89
77041;BME280;65974;42.664;23.264;2023-03-26T12:12:38;93848.63;;;16.24;28.80
77041;BME280;65974;42.664;23.264;2023-03-26T12:15:15;93859.84;;;16.48;28.99
77041;BME280;65974;42.664;23.264;2023-03-26T12:17:41;93842.84;;;16.39;29.07
77041;BME280;65974;42.664;23.264;2023-03-26T12:22:56;93836.66;;;16.54;28.00
77041;BME280;65974;42.664;23.264;2023-03-26T12:25:33;93830.63;;;16.63;26.09
77041;BME280;65974;42.664;23.264;2023-03-26T12:30:51;93816.41;;;17.00;27.24
77041;BME280;65974;42.664;23.264;2023-03-26T12:33:25;93819.88;;;16.75;24.98
77041;BME280;65974;42.664;23.264;2023-03-26T12:35:53;93806.75;;;16.77;25.15
77041;BME280;65974;42.664;23.264;2023-03-26T12:43:48;93800.81;;;16.95;24.29
77041;BME280;65974;42.664;23.264;2023-03-26T12:46:34;93803.38;;;16.98;24.31
77041;BME280;65974;42.664;23.264;2023-03-26T12:49:03;93791.97;;;17.07;23.46
77041;BME280;65974;42.664;23.264;2023-03-26T12:51:54;93789.16;;;17.11;22.45
77041;BME280;65974;42.664;23.264;2023-03-26T12:54:26;93788.75;;;16.99;23.59
77041;BME280;65974;42.664;23.264;2023-03-26T13:04:30;93793.00;;;16.63;25.36
77041;BME280;65974;42.664;23.264;2023-03-26T13:12:46;93785.63;;;16.25;22.07
77041;BME280;65974;42.664;23.264;2023-03-26T13:15:24;93779.41;;;16.28;19.75
77041;BME280;65974;42.664;23.264;2023-03-26T13:29:09;93790.19;;;16.54;23.91
77041;BME280;65974;42.664;23.264;2023-03-26T13:47:33;93763.19;;;17.17;22.63
77041;BME280;65974;42.664;23.264;2023-03-26T13:50:05;93765.72;;;16.98;23.09
77041;BME280;65974;42.664;23.264;2023-03-26T13:55:17;93763.59;;;16.30;23.10
77041;BME280;65974;42.664;23.264;2023-03-26T13:57:59;93756.50;;;16.24;23.30
77041;BME280;65974;42.664;23.264;2023-03-26T14:05:56;93761.75;;;16.02;23.89
77041;BME280;65974;42.664;23.264;2023-03-26T14:08:32;93755.63;;;16.02;25.00
77041;BME280;65974;42.664;23.264;2023-03-26T14:11:37;93745.72;;;15.86;25.01
77041;BME280;65974;42.664;23.264;2023-03-26T14:14:11;93747.09;;;15.91;25.10
77041;BME280;65974;42.664;23.264;2023-03-26T14:16:43;93741.72;;;15.91;25.40
77041;BME280;65974;42.664;23.264;2023-03-26T14:22:36;93737.56;;;15.90;25.89
77041;BME280;65974;42.664;23.264;2023-03-26T14:25:52;93742.16;;;15.89;25.76
77041;BME280;65974;42.664;23.264;2023-03-26T14:28:23;93731.75;;;16.04;26.67
77041;BME280;65974;42.664;23.264;2023-03-26T14:50:44;93724.94;;;15.62;27.83
77041;BME280;65974;42.664;23.264;2023-03-26T14:53:27;93718.25;;;15.53;28.14
77041;BME280;65974;42.664;23.264;2023-03-26T15:36:19;93735.22;;;15.06;29.07
77041;BME280;65974;42.664;23.264;2023-03-26T15:45:11;93731.47;;;15.03;29.74
77041;BME280;65974;42.664;23.264;2023-03-26T15:53:05;93736.56;;;14.98;29.81
77041;BME280;65974;42.664;23.264;2023-03-26T15:55:50;93739.69;;;14.96;29.87
77041;BME280;65974;42.664;23.264;2023-03-26T15:58:27;93734.66;;;14.98;29.66
77041;BME280;65974;42.664;23.264;2023-03-26T16:04:08;93735.34;;;14.86;29.90
77041;BME280;65974;42.664;23.264;2023-03-26T16:12:30;93740.03;;;14.66;30.98
77041;BME280;65974;42.664;23.264;2023-03-26T16:28:58;93752.16;;;14.38;31.09
77041;BME280;65974;42.664;23.264;2023-03-26T16:31:29;93758.72;;;14.37;31.52
77041;BME280;65974;42.664;23.264;2023-03-26T16:36:35;93756.97;;;14.27;31.92
77041;BME280;65974;42.664;23.264;2023-03-26T16:41:31;93759.31;;;14.09;32.90
77041;BME280;65974;42.664;23.264;2023-03-26T16:46:55;93764.25;;;13.91;33.54
77041;BME280;65974;42.664;23.264;2023-03-26T17:19:34;93764.84;;;12.54;37.52
77041;BME280;65974;42.664;23.264;2023-03-26T17:24:48;93767.72;;;12.40;38.01
77041;BME280;65974;42.664;23.264;2023-03-26T17:27:45;93767.38;;;12.38;37.01
77041;BME280;65974;42.664;23.264;2023-03-26T17:35:47;93773.81;;;12.14;40.81
77041;BME280;65974;42.664;23.264;2023-03-26T17:43:11;93766.44;;;11.95;41.17
77041;BME280;65974;42.664;23.264;2023-03-26T17:45:56;93767.44;;;11.78;41.79
77041;BME280;65974;42.664;23.264;2023-03-26T17:48:22;93763.34;;;11.69;42.22
77041;BME280;65974;42.664;23.264;2023-03-26T17:50:56;93760.00;;;11.58;42.39
77041;BME280;65974;42.664;23.264;2023-03-26T17:55:51;93758.44;;;11.64;41.82
77041;BME280;65974;42.664;23.264;2023-03-26T17:58:29;93756.63;;;11.58;42.15
77041;BME280;65974;42.664;23.264;2023-03-26T18:01:21;93756.34;;;11.49;42.99
77041;BME280;65974;42.664;23.264;2023-03-26T18:03:49;93746.31;;;11.56;41.97
77041;BME280;65974;42.664;23.264;2023-03-26T18:06:58;93762.66;;;11.62;41.52
77041;BME280;65974;42.664;23.264;2023-03-26T18:17:20;93750.91;;;11.22;43.10
77041;BME280;65974;42.664;23.264;2023-03-26T18:20:01;93748.69;;;11.17;44.20
77041;BME280;65974;42.664;23.264;2023-03-26T18:22:30;93741.22;;;11.05;43.74
77041;BME280;65974;42.664;23.264;2023-03-26T18:24:58;93754.25;;;10.92;43.55
77041;BME280;65974;42.664;23.264;2023-03-26T18:27:34;93745.50;;;10.96;44.50
77041;BME280;65974;42.664;23.264;2023-03-26T18:30:16;93735.59;;;10.96;44.25
77041;BME280;65974;42.664;23.264;2023-03-26T18:35:26;93732.16;;;10.96;44.12
77041;BME280;65974;42.664;23.264;2023-03-26T18:37:55;93735.19;;;10.98;43.96
77041;BME280;65974;42.664;23.264;2023-03-26T18:40:32;93729.59;;;10.85;45.10
77041;BME280;65974;42.664;23.264;2023-03-26T18:42:58;93724.63;;;10.87;43.91
77041;BME280;65974;42.664;23.264;2023-03-26T18:45:30;93726.88;;;10.92;43.34
77041;BME280;65974;42.664;23.264;2023-03-26T18:48:02;93732.63;;;10.87;43.64
77041;BME280;65974;42.664;23.264;2023-03-26T18:50:34;93716.28;;;10.85;43.89
77041;BME280;65974;42.664;23.264;2023-03-26T18:53:05;93711.38;;;10.80;43.36
77041;BME280;65974;42.664;23.264;2023-03-26T18:55:33;93719.00;;;10.78;42.98
77041;BME280;65974;42.664;23.264;2023-03-26T18:58:19;93719.09;;;10.71;43.32
77041;BME280;65974;42.664;23.264;2023-03-26T19:00:47;93709.28;;;10.64;44.10
77041;BME280;65974;42.664;23.264;2023-03-26T19:03:16;93701.66;;;10.63;44.23
77041;BME280;65974;42.664;23.264;2023-03-26T19:05:45;93695.97;;;10.64;44.10
77041;BME280;65974;42.664;23.264;2023-03-26T19:08:11;93696.69;;;10.65;43.12
77041;BME280;65974;42.664;23.264;2023-03-26T19:10:37;93683.41;;;10.61;43.63
77041;BME280;65974;42.664;23.264;2023-03-26T19:13:02;93687.66;;;10.55;43.74
77041;BME280;65974;42.664;23.264;2023-03-26T19:15:33;93681.16;;;10.60;42.93
77041;BME280;65974;42.664;23.264;2023-03-26T19:18:04;93685.75;;;10.56;44.58
77041;BME280;65974;42.664;23.264;2023-03-26T19:20:47;93688.84;;;10.51;43.90
77041;BME280;65974;42.664;23.264;2023-03-26T19:23:17;93688.47;;;10.49;42.35
77041;BME280;65974;42.664;23.264;2023-03-26T19:25:48;93678.34;;;10.33;42.61
77041;BME280;65974;42.664;23.264;2023-03-26T19:28:25;93674.63;;;10.24;43.53
77041;BME280;65974;42.664;23.264;2023-03-26T19:33:52;93662.56;;;10.12;42.94
77041;BME280;65974;42.664;23.264;2023-03-26T19:36:25;93666.03;;;10.02;44.12
77041;BME280;65974;42.664;23.264;2023-03-26T19:39:09;93665.72;;;9.96;44.22
77041;BME280;65974;42.664;23.264;2023-03-26T19:41:38;93657.38;;;9.91;42.99
77041;BME280;65974;42.664;23.264;2023-03-26T19:46:44;93651.44;;;9.73;43.62
77041;BME280;65974;42.664;23.264;2023-03-26T19:49:40;93654.47;;;9.75;43.19